Time;durP1;ratioP1;P1;durP2;ratioP2;P2;SDS_P1;SDS_P2;PMS_P1;PMS_P2;Temp;Humidity;BMP_temperature;BMP_pressure;BME280_temperature;BME280_humidity;BME280_pressure;Samples;Min_cycle;Max_cycle;Signal;HPM_P1;HPM_P2
2021/07/29 00:01:31;;;;;;;;;;;;;;;31.73;39.67;99799.62;4457184;32;35068;-93
2021/07/29 00:04:00;;;;;;;;;;;;;;;31.96;39.13;99800.41;4457182;32;35950;-95
2021/07/29 00:06:33;;;;;;;;;;;;;;;31.91;39.28;99794.72;4457181;32;33702;-94
2021/07/29 00:09:03;;;;;;;;;;;;;;;32.23;38.50;99775.66;4457478;32;36048;-93
2021/07/29 00:11:31;;;;;;;;;;;;;;;31.19;40.77;99781.75;4457102;32;34871;-93
2021/07/29 00:14:01;;;;;;;;;;;;;;;31.90;39.26;99805.69;4456941;32;34443;-95
2021/07/29 00:16:42;;;;;;;;;;;;;;;31.88;39.31;99805.84;4457181;32;33746;-93
2021/07/29 00:19:10;;;;;;;;;;;;;;;32.16;38.69;99810.63;4456472;32;34931;-94
2021/07/29 00:21:39;;;;;;;;;;;;;;;31.83;39.33;99805.59;4420447;32;1155326;-92
2021/07/29 00:24:07;;;;;;;;;;;;;;;31.70;39.67;99798.16;4456531;32;34337;-93
2021/07/29 00:26:37;;;;;;;;;;;;;;;31.40;40.32;99786.47;4456684;32;34633;-92
2021/07/29 00:29:06;;;;;;;;;;;;;;;31.75;39.55;99797.56;4457104;32;32987;-92
2021/07/29 00:31:34;;;;;;;;;;;;;;;32.03;38.86;99789.72;4456878;32;34852;-93
2021/07/29 00:34:03;;;;;;;;;;;;;;;32.09;38.70;99794.34;4469725;32;34437;-93
2021/07/29 00:36:35;;;;;;;;;;;;;;;32.16;38.54;99794.44;4456962;32;33562;-92
2021/07/29 00:39:04;;;;;;;;;;;;;;;32.04;38.78;99817.47;4456010;32;34987;-92
2021/07/29 00:41:32;;;;;;;;;;;;;;;32.00;38.82;99806.22;4469850;32;33919;-92
2021/07/29 00:44:00;;;;;;;;;;;;;;;31.66;39.44;99807.62;4456154;32;35589;-93
2021/07/29 00:46:29;;;;;;;;;;;;;;;31.52;39.65;99811.91;4456601;32;34556;-93
2021/07/29 00:49:01;;;;;;;;;;;;;;;31.96;38.54;99807.62;4444079;32;34697;-93
2021/07/29 00:51:29;;;;;;;;;;;;;;;31.66;39.19;99798.69;4456280;32;34514;-93
2021/07/29 00:53:58;;;;;;;;;;;;;;;31.58;39.30;99794.22;4456988;32;34459;-92
2021/07/29 00:56:27;;;;;;;;;;;;;;;31.77;38.77;99801.75;4457837;32;34211;-93
2021/07/29 00:58:54;;;;;;;;;;;;;;;31.58;39.28;99804.97;4457680;32;34464;-92
2021/07/29 01:01:23;;;;;;;;;;;;;;;31.89;38.62;99804.00;4454411;32;34886;-93
2021/07/29 01:03:53;;;;;;;;;;;;;;;32.15;38.03;99798.16;4455282;32;34447;-93
2021/07/29 01:06:21;;;;;;;;;;;;;;;31.61;39.18;99807.31;4455267;32;34045;-93
2021/07/29 01:09:00;;;;;;;;;;;;;;;31.75;38.90;99813.75;4455998;32;34564;-93
2021/07/29 01:11:29;;;;;;;;;;;;;;;32.36;37.64;99810.87;4455916;32;35152;-93
2021/07/29 01:13:59;;;;;;;;;;;;;;;32.25;37.93;99827.53;4456025;32;34382;-93
2021/07/29 01:16:26;;;;;;;;;;;;;;;31.95;38.55;99847.22;4455996;32;32354;-93
2021/07/29 01:18:55;;;;;;;;;;;;;;;30.97;40.74;99856.87;4456394;32;33165;-93
2021/07/29 01:21:29;;;;;;;;;;;;;;;31.03;40.76;99855.34;4456617;32;33570;-92
2021/07/29 01:23:58;;;;;;;;;;;;;;;30.59;41.62;99856.75;4456031;32;33452;-94
2021/07/29 01:26:28;;;;;;;;;;;;;;;31.00;40.38;99839.56;4456275;32;32494;-93
2021/07/29 01:28:59;;;;;;;;;;;;;;;31.17;39.49;99830.38;4469334;32;35014;-93
2021/07/29 01:31:27;;;;;;;;;;;;;;;30.43;40.86;99798.50;4469337;32;34069;-94
2021/07/29 01:33:57;;;;;;;;;;;;;;;31.25;38.67;99795.31;4469131;32;35245;-93
2021/07/29 01:36:25;;;;;;;;;;;;;;;31.03;39.02;99804.22;4455322;32;33061;-92
2021/07/29 01:38:53;;;;;;;;;;;;;;;30.39;39.86;99791.81;4456109;32;33934;-93
2021/07/29 01:41:22;;;;;;;;;;;;;;;30.26;39.56;99795.91;4456001;32;33498;-94
2021/07/29 01:43:51;;;;;;;;;;;;;;;29.71;40.75;99792.16;4455664;32;33796;-92
2021/07/29 01:46:19;;;;;;;;;;;;;;;30.03;39.83;99789.59;4456189;32;32266;-93
2021/07/29 01:48:48;;;;;;;;;;;;;;;30.11;39.38;99776.12;4455622;32;34163;-93
2021/07/29 01:51:15;;;;;;;;;;;;;;;30.29;38.75;99775.91;4455644;32;34980;-92
2021/07/29 01:53:43;;;;;;;;;;;;;;;30.70;37.83;99823.25;4455674;32;32853;-94
2021/07/29 01:56:11;;;;;;;;;;;;;;;30.08;39.22;99846.34;4455651;32;32418;-92
2021/07/29 01:58:39;;;;;;;;;;;;;;;30.56;37.92;99838.28;4455236;32;33132;-93
2021/07/29 02:01:06;;;;;;;;;;;;;;;29.52;40.03;99806.78;4456057;32;33180;-93
2021/07/29 02:03:36;;;;;;;;;;;;;;;30.15;38.57;99804.31;4469649;32;33065;-93
2021/07/29 02:06:04;;;;;;;;;;;;;;;30.31;38.27;99800.72;4457582;32;32841;-93
2021/07/29 02:08:32;;;;;;;;;;;;;;;29.81;39.32;99800.03;4456759;32;35690;-93
2021/07/29 02:11:04;;;;;;;;;;;;;;;29.07;41.36;99803.56;4470758;32;34800;-93
2021/07/29 02:13:32;;;;;;;;;;;;;;;28.61;42.68;99808.47;4457979;32;34548;-93
2021/07/29 02:16:00;;;;;;;;;;;;;;;28.90;41.77;99826.81;4457927;32;32923;-94
2021/07/29 02:18:28;;;;;;;;;;;;;;;27.67;44.78;99838.59;4457439;32;35212;-93
2021/07/29 02:20:58;;;;;;;;;;;;;;;28.80;41.95;99842.25;4457890;32;35105;-92
2021/07/29 02:23:25;;;;;;;;;;;;;;;28.45;42.54;99825.31;4456700;32;34475;-92
2021/07/29 02:25:53;;;;;;;;;;;;;;;28.65;41.89;99845.53;4470756;32;34695;-93
2021/07/29 02:28:21;;;;;;;;;;;;;;;28.57;42.25;99845.47;4461080;32;35101;-93
2021/07/29 02:30:49;;;;;;;;;;;;;;;28.07;43.24;99851.63;4463055;32;34832;-92
2021/07/29 02:33:16;;;;;;;;;;;;;;;28.66;42.01;99851.72;4490767;32;36141;-92
2021/07/29 02:35:48;;;;;;;;;;;;;;;28.67;41.46;99850.75;4460019;32;33731;-94
2021/07/29 02:38:16;;;;;;;;;;;;;;;28.58;41.55;99851.69;4458034;32;34452;-94
2021/07/29 02:40:44;;;;;;;;;;;;;;;28.27;41.96;99855.72;4457746;32;35392;-92
2021/07/29 02:43:12;;;;;;;;;;;;;;;27.61;42.98;99839.22;4444437;32;34655;-93
2021/07/29 02:45:39;;;;;;;;;;;;;;;28.63;40.60;99834.09;4457164;32;34010;-92
2021/07/29 02:48:08;;;;;;;;;;;;;;;29.07;39.57;99845.66;4457244;32;34352;-93
2021/07/29 02:50:36;;;;;;;;;;;;;;;29.07;39.44;99848.34;4444029;32;34735;-93
2021/07/29 02:53:04;;;;;;;;;;;;;;;28.05;41.61;99851.75;4456209;32;35059;-92
2021/07/29 02:55:33;;;;;;;;;;;;;;;28.65;40.30;99853.59;4457972;32;34004;-92
2021/07/29 02:58:01;;;;;;;;;;;;;;;28.54;40.59;99850.31;4457471;32;35996;-94
2021/07/29 03:00:28;;;;;;;;;;;;;;;28.52;40.59;99861.22;4469830;32;35232;-93
2021/07/29 03:02:59;;;;;;;;;;;;;;;28.19;41.57;99860.19;4457719;32;34623;-93
2021/07/29 03:05:27;;;;;;;;;;;;;;;28.45;40.92;99861.03;4470659;32;33392;-93
2021/07/29 03:07:54;;;;;;;;;;;;;;;29.11;39.52;99860.41;4457425;32;33479;-93
2021/07/29 03:10:22;;;;;;;;;;;;;;;29.31;39.11;99856.41;4457233;32;35206;-92
2021/07/29 03:12:50;;;;;;;;;;;;;;;29.57;38.62;99852.75;4469706;32;34987;-93
2021/07/29 03:15:18;;;;;;;;;;;;;;;29.32;39.33;99855.41;4455412;32;34214;-92
2021/07/29 03:17:46;;;;;;;;;;;;;;;29.13;39.79;99867.28;4457158;32;34719;-92
2021/07/29 03:20:14;;;;;;;;;;;;;;;29.57;39.06;99863.50;4456670;32;34693;-94
2021/07/29 03:22:43;;;;;;;;;;;;;;;28.86;40.65;99870.22;4457246;32;34350;-92
2021/07/29 03:25:12;;;;;;;;;;;;;;;29.02;40.19;99869.44;4482377;32;33558;-94
2021/07/29 03:27:39;;;;;;;;;;;;;;;28.62;41.20;99864.56;4456955;32;35840;-92
2021/07/29 03:30:07;;;;;;;;;;;;;;;28.31;41.98;99866.97;4450253;32;34400;-93
2021/07/29 03:32:36;;;;;;;;;;;;;;;28.12;42.43;99857.31;4470288;32;33907;-92
2021/07/29 03:35:04;;;;;;;;;;;;;;;28.66;41.22;99865.13;4457327;32;34125;-92
2021/07/29 03:37:32;;;;;;;;;;;;;;;28.79;40.92;99875.41;4482822;32;34425;-93
2021/07/29 03:40:04;;;;;;;;;;;;;;;29.16;40.20;99882.22;4457085;32;35366;-92
2021/07/29 03:42:32;;;;;;;;;;;;;;;29.35;39.87;99883.75;4456359;32;35359;-92
2021/07/29 03:45:01;;;;;;;;;;;;;;;28.75;41.37;99884.78;4456689;32;33927;-93
2021/07/29 03:47:28;;;;;;;;;;;;;;;29.32;39.86;99892.16;4456994;32;35398;-92
2021/07/29 03:49:56;;;;;;;;;;;;;;;29.72;38.87;99885.13;4457292;32;34683;-93
2021/07/29 03:52:25;;;;;;;;;;;;;;;29.51;39.34;99882.94;4457676;32;34324;-92
2021/07/29 03:54:55;;;;;;;;;;;;;;;28.98;40.56;99890.38;4456806;32;34985;-94
2021/07/29 03:57:23;;;;;;;;;;;;;;;29.06;40.35;99881.50;4456820;32;34693;-93
2021/07/29 03:59:52;;;;;;;;;;;;;;;28.97;40.32;99877.97;4456432;32;35399;-92
2021/07/29 04:02:19;;;;;;;;;;;;;;;28.37;41.74;99870.84;4469533;32;34846;-93
2021/07/29 04:04:48;;;;;;;;;;;;;;;28.82;40.49;99875.06;4457274;32;33908;-93
2021/07/29 04:07:15;;;;;;;;;;;;;;;28.19;41.80;99881.63;4462456;32;35106;-92
2021/07/29 04:09:44;;;;;;;;;;;;;;;28.83;40.42;99876.75;4479400;32;35464;-93
2021/07/29 04:12:14;;;;;;;;;;;;;;;29.02;39.91;99880.16;4467642;32;32918;-92
2021/07/29 04:14:41;;;;;;;;;;;;;;;29.08;39.63;99880.34;4463311;32;33703;-92
2021/07/29 04:17:10;;;;;;;;;;;;;;;28.65;40.57;99884.91;4470863;32;35643;-93
2021/07/29 04:19:39;;;;;;;;;;;;;;;28.77;40.34;99888.97;4471306;32;33049;-92
2021/07/29 04:22:06;;;;;;;;;;;;;;;28.59;40.73;99891.72;4456090;32;34734;-92
2021/07/29 04:24:34;;;;;;;;;;;;;;;29.19;39.45;99897.13;4455125;32;33663;-92
2021/07/29 04:27:03;;;;;;;;;;;;;;;28.63;40.74;99911.00;4467629;32;34516;-94
2021/07/29 04:29:34;;;;;;;;;;;;;;;29.30;39.26;99911.09;4454654;32;34714;-93
2021/07/29 04:32:04;;;;;;;;;;;;;;;29.41;39.03;99925.19;4455003;32;34927;-93
2021/07/29 04:34:32;;;;;;;;;;;;;;;29.96;37.96;99910.31;4454625;32;34234;-93
2021/07/29 04:37:00;;;;;;;;;;;;;;;29.43;39.08;99917.81;4454606;32;34404;-93
2021/07/29 04:39:30;;;;;;;;;;;;;;;28.49;41.22;99913.28;4468533;32;33587;-93
2021/07/29 04:41:58;;;;;;;;;;;;;;;29.48;39.11;99919.00;4467983;32;34453;-93
2021/07/29 04:44:30;;;;;;;;;;;;;;;29.48;39.05;99915.47;4455381;32;33831;-93
2021/07/29 04:46:57;;;;;;;;;;;;;;;29.41;39.34;99920.69;4455035;32;34947;-92
2021/07/29 04:49:25;;;;;;;;;;;;;;;28.88;40.47;99928.06;4454850;32;35821;-92
2021/07/29 04:51:54;;;;;;;;;;;;;;;29.37;39.64;99938.13;4457176;32;34796;-91
2021/07/29 04:54:22;;;;;;;;;;;;;;;28.57;41.31;99939.25;4467823;32;34236;-91
2021/07/29 04:56:50;;;;;;;;;;;;;;;28.31;41.81;99940.13;4456117;32;34697;-92
2021/07/29 04:59:19;;;;;;;;;;;;;;;29.30;39.48;99940.63;4435917;32;35628;-91
2021/07/29 05:01:47;;;;;;;;;;;;;;;29.42;39.22;99934.94;4455225;32;34598;-92
2021/07/29 05:04:16;;;;;;;;;;;;;;;29.52;39.08;99932.06;4467022;32;34187;-92
2021/07/29 05:06:44;;;;;;;;;;;;;;;29.02;39.88;99928.44;4441036;32;35186;-93
2021/07/29 05:09:11;;;;;;;;;;;;;;;29.56;38.77;99907.44;4441113;32;34961;-92
2021/07/29 05:11:39;;;;;;;;;;;;;;;29.91;38.20;99918.03;4441031;32;35617;-93
2021/07/29 05:14:07;;;;;;;;;;;;;;;29.82;38.42;99923.38;4453576;32;33702;-92
2021/07/29 05:16:34;;;;;;;;;;;;;;;29.95;38.18;99924.75;4453873;32;34698;-89
2021/07/29 05:19:03;;;;;;;;;;;;;;;30.39;37.20;99923.50;4453141;32;34416;-88
2021/07/29 05:21:31;;;;;;;;;;;;;;;30.49;36.84;99921.47;4466268;32;34849;-89
2021/07/29 05:23:58;;;;;;;;;;;;;;;30.31;37.14;99924.34;4453118;32;33808;-89
2021/07/29 05:26:26;;;;;;;;;;;;;;;30.43;36.76;99916.75;4440156;32;35465;-91
2021/07/29 05:28:54;;;;;;;;;;;;;;;30.81;35.98;99927.75;4453011;32;35708;-90
2021/07/29 05:31:21;;;;;;;;;;;;;;;30.54;36.55;99929.88;4440600;32;34199;-92
2021/07/29 05:33:48;;;;;;;;;;;;;;;30.59;36.32;99927.47;4453505;32;33717;-91
2021/07/29 05:36:17;;;;;;;;;;;;;;;30.52;35.96;99921.12;4427611;32;34099;-91
2021/07/29 05:38:45;;;;;;;;;;;;;;;30.60;35.82;99929.16;4474546;32;34266;-91
2021/07/29 05:41:12;;;;;;;;;;;;;;;30.61;35.56;99933.53;4470935;32;34530;-91
2021/07/29 05:43:45;;;;;;;;;;;;;;;30.61;35.78;99924.63;4471762;32;32621;-91
2021/07/29 05:46:15;;;;;;;;;;;;;;;30.33;36.18;99925.03;4468308;32;34353;-92
2021/07/29 05:48:43;;;;;;;;;;;;;;;30.36;35.90;99921.16;4485071;32;34665;-92
2021/07/29 05:51:11;;;;;;;;;;;;;;;30.28;35.96;99922.00;4457168;32;33257;-88
2021/07/29 05:53:39;;;;;;;;;;;;;;;30.13;36.45;99916.50;4483190;32;33664;-90
2021/07/29 05:56:07;;;;;;;;;;;;;;;30.56;35.61;99925.13;4476920;32;35625;-90
2021/07/29 05:58:36;;;;;;;;;;;;;;;30.43;35.64;99927.50;4458927;32;34844;-91
2021/07/29 06:01:10;;;;;;;;;;;;;;;29.76;36.95;99925.91;4459025;32;34859;-88
2021/07/29 06:03:38;;;;;;;;;;;;;;;30.02;36.54;99925.72;4459992;32;34635;-92
2021/07/29 06:06:12;;;;;;;;;;;;;;;29.64;37.34;99920.84;4483540;32;34139;-95
2021/07/29 06:08:41;;;;;;;;;;;;;;;30.07;36.31;99918.00;4458035;32;33158;-88
2021/07/29 06:11:08;;;;;;;;;;;;;;;29.37;37.58;99924.69;4457755;32;34780;-89
2021/07/29 06:13:36;;;;;;;;;;;;;;;29.99;36.56;99926.06;4463363;32;34258;-91
2021/07/29 06:16:09;;;;;;;;;;;;;;;29.73;37.10;99920.84;4461073;32;33282;-88
2021/07/29 06:18:48;;;;;;;;;;;;;;;30.29;36.08;99919.16;4460289;32;34922;-92
2021/07/29 06:21:16;;;;;;;;;;;;;;;30.16;36.31;99910.78;4458034;32;34482;-94
2021/07/29 06:23:44;;;;;;;;;;;;;;;30.41;35.78;99921.47;4457953;32;34036;-96
2021/07/29 06:26:11;;;;;;;;;;;;;;;30.97;34.90;99929.50;4457707;32;34532;-93
2021/07/29 06:35:39;;;;;;;;;;;;;;;31.07;34.34;99935.56;4467671;31;34298;-95
2021/07/29 06:44:52;;;;;;;;;;;;;;;31.39;33.42;99943.59;4742549;28;20004;-90
2021/07/29 06:47:21;;;;;;;;;;;;;;;31.63;32.91;99946.16;4327941;32;33217;-93
2021/07/29 06:49:48;;;;;;;;;;;;;;;31.29;33.84;99950.03;4337339;32;34515;-89
2021/07/29 06:52:16;;;;;;;;;;;;;;;31.42;33.25;99946.78;4329082;32;35245;-88
2021/07/29 06:54:43;;;;;;;;;;;;;;;31.66;32.58;99961.09;4354729;32;34232;-87
2021/07/29 06:57:11;;;;;;;;;;;;;;;31.52;32.99;99956.47;4364782;32;33448;-87
2021/07/29 06:59:40;;;;;;;;;;;;;;;32.18;32.05;99964.03;4337807;32;34908;-87
2021/07/29 07:02:09;;;;;;;;;;;;;;;32.02;32.49;99959.62;4350079;32;34786;-91
2021/07/29 07:04:38;;;;;;;;;;;;;;;31.97;32.45;99977.16;4337431;32;34381;-90
2021/07/29 07:07:13;;;;;;;;;;;;;;;32.15;32.30;99965.25;4363426;32;34269;-94
2021/07/29 07:09:45;;;;;;;;;;;;;;;32.37;32.04;99976.19;4337567;32;34622;-93
2021/07/29 07:12:13;;;;;;;;;;;;;;;31.15;34.26;99964.25;4362315;32;34861;-93
2021/07/29 07:14:42;;;;;;;;;;;;;;;32.23;32.26;99972.41;4357270;32;34876;-93
2021/07/29 07:17:10;;;;;;;;;;;;;;;32.29;32.23;99972.53;4348153;32;35112;-94
2021/07/29 07:19:43;;;;;;;;;;;;;;;31.89;32.71;99977.25;4346221;33;35397;-93
2021/07/29 07:22:39;;;;;;;;;;;;;;;31.85;32.32;99970.53;4345731;33;34860;-95
2021/07/29 07:25:13;;;;;;;;;;;;;;;32.28;31.79;99983.50;4345743;33;34899;-93
2021/07/29 07:27:42;;;;;;;;;;;;;;;32.54;31.47;99980.38;4346865;32;35144;-94
2021/07/29 07:30:10;;;;;;;;;;;;;;;32.33;31.94;99981.09;4346990;32;34892;-93
2021/07/29 07:32:38;;;;;;;;;;;;;;;31.73;33.04;99974.69;4349384;32;34875;-94
2021/07/29 07:35:10;;;;;;;;;;;;;;;32.34;31.85;99976.56;4356307;33;33320;-92
2021/07/29 07:37:42;;;;;;;;;;;;;;;32.68;30.83;99975.16;4355788;33;35189;-90
2021/07/29 07:40:11;;;;;;;;;;;;;;;32.91;30.32;99980.50;4336263;33;33425;-90
2021/07/29 07:42:38;;;;;;;;;;;;;;;32.28;31.52;99978.97;4347437;32;34688;-94
2021/07/29 07:45:26;;;;;;;;;;;;;;;32.53;31.43;99967.91;4346280;32;35110;-91
2021/07/29 07:47:55;;;;;;;;;;;;;;;33.21;29.82;99988.53;4347379;32;33805;-91
2021/07/29 07:50:22;;;;;;;;;;;;;;;32.74;30.71;99980.66;4348620;32;35306;-90
2021/07/29 07:52:51;;;;;;;;;;;;;;;33.01;30.25;99993.69;4349430;33;35174;-96
2021/07/29 07:55:22;;;;;;;;;;;;;;;33.36;29.61;99989.38;4348784;32;34735;-94
2021/07/29 07:58:12;;;;;;;;;;;;;;;33.52;29.19;99985.59;4349124;33;33624;-94
2021/07/29 08:00:40;;;;;;;;;;;;;;;33.54;29.10;99986.22;4346851;32;34847;-94
2021/07/29 08:03:27;;;;;;;;;;;;;;;32.66;30.41;99988.00;4375799;32;34897;-93
2021/07/29 08:06:10;;;;;;;;;;;;;;;33.11;29.08;99986.13;4385144;32;34775;-94
2021/07/29 08:08:39;;;;;;;;;;;;;;;33.21;28.98;99978.53;4375005;32;33577;-93
2021/07/29 08:11:27;;;;;;;;;;;;;;;33.07;29.17;99991.06;4364075;32;34571;-93
2021/07/29 08:14:19;;;;;;;;;;;;;;;33.16;28.97;99981.00;4351088;32;35602;-94
2021/07/29 08:17:14;;;;;;;;;;;;;;;33.57;28.50;99982.28;4326317;33;32986;-94
2021/07/29 08:20:01;;;;;;;;;;;;;;;34.07;27.87;99987.78;4357355;32;33006;-94
2021/07/29 08:22:44;;;;;;;;;;;;;;;33.30;28.88;99982.00;4383093;32;33540;-96
2021/07/29 08:25:32;;;;;;;;;;;;;;;33.92;28.24;99999.50;4375125;32;34827;-94
2021/07/29 08:28:19;;;;;;;;;;;;;;;34.38;26.94;99986.56;4387222;32;34592;-94
2021/07/29 08:31:09;;;;;;;;;;;;;;;33.62;28.08;99987.97;4381164;32;32107;-95
2021/07/29 08:33:52;;;;;;;;;;;;;;;33.47;28.61;99990.72;4372846;32;33096;-91
2021/07/29 08:36:29;;;;;;;;;;;;;;;34.34;27.14;99990.72;4386742;32;34898;-92
2021/07/29 08:38:57;;;;;;;;;;;;;;;33.66;28.10;99999.22;4361919;32;34832;-95
2021/07/29 08:41:28;;;;;;;;;;;;;;;33.34;28.23;99991.41;4373283;32;32455;-91
2021/07/29 08:43:55;;;;;;;;;;;;;;;34.25;26.46;99998.94;4374184;32;34705;-93
2021/07/29 08:46:24;;;;;;;;;;;;;;;33.77;27.30;99990.59;4360383;32;35313;-91
2021/07/29 08:48:53;;;;;;;;;;;;;;;34.39;26.46;99988.25;4369946;32;34818;-94
2021/07/29 08:51:23;;;;;;;;;;;;;;;34.58;26.40;99992.97;4346290;33;33996;-91
2021/07/29 08:53:52;;;;;;;;;;;;;;;33.71;27.14;99994.09;4344867;33;35032;-93
2021/07/29 08:56:24;;;;;;;;;;;;;;;34.03;26.74;99990.03;4345636;33;35299;-92
2021/07/29 08:58:54;;;;;;;;;;;;;;;34.41;26.24;99992.44;4357172;32;35045;-95
2021/07/29 09:01:42;;;;;;;;;;;;;;;34.71;25.81;99996.75;4347922;33;34491;-96
2021/07/29 09:04:32;;;;;;;;;;;;;;;34.29;26.22;99986.69;4345356;33;33276;-95
2021/07/29 09:07:22;;;;;;;;;;;;;;;34.57;26.03;99987.72;4352355;32;34773;-93
2021/07/29 09:10:20;;;;;;;;;;;;;;;34.98;25.21;99988.81;4335392;33;34837;-94
2021/07/29 09:13:10;;;;;;;;;;;;;;;35.31;24.31;99993.50;4348103;33;34748;-95
2021/07/29 09:16:08;;;;;;;;;;;;;;;34.87;24.82;99980.22;4349307;33;35323;-94
2021/07/29 09:18:52;;;;;;;;;;;;;;;35.67;23.73;99979.63;4367415;32;33685;-92
2021/07/29 09:22:13;;;;;;;;;;;;;;;33.95;25.58;99982.88;4361313;32;34657;-93
2021/07/29 09:25:02;;;;;;;;;;;;;;;35.09;24.48;99978.22;4353391;33;34313;-93
2021/07/29 09:27:47;;;;;;;;;;;;;;;34.26;25.08;99986.25;4356572;32;33111;-95
2021/07/29 09:30:17;;;;;;;;;;;;;;;35.07;24.15;99983.00;4339839;33;33370;-94
2021/07/29 09:33:17;;;;;;;;;;;;;;;35.55;23.37;99984.81;4346451;32;34576;-95
2021/07/29 09:36:05;;;;;;;;;;;;;;;35.77;23.32;99984.66;4348053;33;34669;-95
2021/07/29 09:42:13;;;;;;;;;;;;;;;36.20;22.69;99995.09;4372689;27;19967;-91
2021/07/29 09:44:46;;;;;;;;;;;;;;;36.41;22.44;99990.53;4364323;32;33886;-89
2021/07/29 09:47:14;;;;;;;;;;;;;;;36.47;21.39;99989.66;4335268;32;34262;-87
2021/07/29 09:49:42;;;;;;;;;;;;;;;36.98;21.23;99984.53;4346608;32;35511;-90
2021/07/29 09:52:15;;;;;;;;;;;;;;;36.10;22.52;99982.00;4369114;32;33859;-92
2021/07/29 09:55:02;;;;;;;;;;;;;;;35.94;22.28;99983.25;4376468;32;33337;-93
2021/07/29 09:57:54;;;;;;;;;;;;;;;36.39;21.38;99987.19;4365913;32;33930;-93
2021/07/29 10:00:36;;;;;;;;;;;;;;;35.77;22.05;99984.66;4370116;32;35715;-93
2021/07/29 10:03:37;;;;;;;;;;;;;;;35.93;22.15;99978.84;4362853;32;35003;-95
2021/07/29 10:06:21;;;;;;;;;;;;;;;36.80;21.57;99979.78;4364048;32;32971;-96
2021/07/29 10:08:51;;;;;;;;;;;;;;;36.51;22.45;99985.53;4361466;32;33835;-93
2021/07/29 10:11:36;;;;;;;;;;;;;;;36.18;21.67;99978.22;4350050;33;34777;-94
2021/07/29 10:14:42;;;;;;;;;;;;;;;37.06;20.64;99976.16;4363889;32;32756;-94
2021/07/29 10:17:43;;;;;;;;;;;;;;;37.14;21.28;99981.34;4340736;33;35126;-93
2021/07/29 10:20:32;;;;;;;;;;;;;;;37.61;20.36;99975.66;4338950;33;33668;-92
2021/07/29 10:23:56;;;;;;;;;;;;;;;37.71;20.07;99970.56;4342224;33;34799;-92
2021/07/29 10:27:04;;;;;;;;;;;;;;;38.02;20.66;99979.75;5173724;27;21442;31
2021/07/29 10:29:34;;;;;;;;;;;;;;;37.84;20.47;99964.22;4336326;33;34485;-91
2021/07/29 10:32:10;;;;;;;;;;;;;;;37.25;20.95;99967.06;4350491;33;34448;-91
2021/07/29 10:34:41;;;;;;;;;;;;;;;38.03;19.88;99959.66;4336185;33;34277;-91
2021/07/29 10:37:09;;;;;;;;;;;;;;;38.06;19.98;99958.38;4337685;33;35914;-93
2021/07/29 10:39:58;;;;;;;;;;;;;;;37.96;19.92;99961.59;4330392;33;34879;-89
2021/07/29 10:42:28;;;;;;;;;;;;;;;38.48;19.32;99961.34;4343188;33;32430;-90
2021/07/29 10:44:57;;;;;;;;;;;;;;;38.14;19.04;99960.00;4358111;32;34789;-91
2021/07/29 10:47:33;;;;;;;;;;;;;;;37.88;19.55;99964.59;4359858;32;35480;-93
2021/07/29 10:50:06;;;;;;;;;;;;;;;38.32;18.39;99961.91;4381529;32;34271;-92
2021/07/29 10:52:54;;;;;;;;;;;;;;;38.51;19.26;99960.88;4358766;32;35403;-90
2021/07/29 10:55:26;;;;;;;;;;;;;;;37.36;20.52;99954.72;4368071;32;34509;-92
2021/07/29 10:57:57;;;;;;;;;;;;;;;38.17;20.22;99963.06;4369466;32;33018;-93
2021/07/29 11:03:24;;;;;;;;;;;;;;;36.38;21.38;99958.38;4363631;32;33735;-93
2021/07/29 11:06:09;;;;;;;;;;;;;;;38.02;19.73;99954.44;4372968;32;33150;-94
2021/07/29 11:08:37;;;;;;;;;;;;;;;38.47;19.24;99953.38;4335869;32;34125;-94
2021/07/29 11:11:09;;;;;;;;;;;;;;;37.49;19.80;99951.06;4335439;32;33303;-93
2021/07/29 11:13:57;;;;;;;;;;;;;;;38.39;18.98;99951.81;4368479;32;32453;-93
2021/07/29 11:16:46;;;;;;;;;;;;;;;38.66;18.48;99941.44;4354981;32;33232;-93
2021/07/29 11:19:14;;;;;;;;;;;;;;;38.99;18.49;99947.56;4365366;32;33188;-93
2021/07/29 11:22:02;;;;;;;;;;;;;;;39.12;18.39;99944.66;4354549;32;32861;-94
2021/07/29 11:24:37;;;;;;;;;;;;;;;38.88;17.86;99939.09;4342509;32;33958;-94
2021/07/29 11:27:30;;;;;;;;;;;;;;;39.37;17.11;99939.06;4345015;32;33039;-95
2021/07/29 11:30:20;;;;;;;;;;;;;;;39.14;16.45;99934.34;4355494;32;34727;-94
2021/07/29 11:33:34;;;;;;;;;;;;;;;39.00;15.92;99938.31;4355467;32;33247;-94
2021/07/29 11:36:19;;;;;;;;;;;;;;;39.23;15.93;99929.44;4354068;32;32447;-95
2021/07/29 11:39:37;;;;;;;;;;;;;;;39.79;15.85;99931.94;4343145;32;34605;-89
2021/07/29 11:42:05;;;;;;;;;;;;;;;39.76;15.78;99927.78;4336384;32;34861;-91
2021/07/29 11:44:40;;;;;;;;;;;;;;;39.70;15.85;99924.13;4339889;32;34446;-92
2021/07/29 11:47:09;;;;;;;;;;;;;;;39.56;16.19;99922.66;4361581;32;33572;-93
2021/07/29 11:49:49;;;;;;;;;;;;;;;39.83;15.91;99928.50;4349743;32;34411;-91
2021/07/29 11:52:17;;;;;;;;;;;;;;;40.20;15.61;99922.00;4360566;32;33981;-92
2021/07/29 11:54:47;;;;;;;;;;;;;;;40.45;15.63;99923.59;4348231;32;34640;-95
2021/07/29 11:57:26;;;;;;;;;;;;;;;40.43;15.83;99932.03;4368354;32;32705;-95
2021/07/29 12:00:37;;;;;;;;;;;;;;;40.45;15.45;99920.88;4360012;32;33325;-94
2021/07/29 12:03:32;;;;;;;;;;;;;;;40.70;14.79;99926.91;4353523;32;34764;-94
2021/07/29 12:06:50;;;;;;;;;;;;;;;40.74;14.78;99917.16;4618054;27;19995;-94
2021/07/29 12:10:07;;;;;;;;;;;;;;;39.53;15.80;99923.09;4400827;32;20030;-88
2021/07/29 12:12:35;;;;;;;;;;;;;;;40.64;15.16;99925.13;4406504;32;34306;-93
2021/07/29 12:15:03;;;;;;;;;;;;;;;39.93;15.99;99922.47;4417291;32;33584;-94
2021/07/29 12:17:31;;;;;;;;;;;;;;;40.09;15.78;99926.41;4432573;32;34292;-94
2021/07/29 12:19:59;;;;;;;;;;;;;;;40.06;15.81;99921.38;4419720;32;34266;-94
2021/07/29 12:22:29;;;;;;;;;;;;;;;39.68;15.70;99909.06;4420207;32;35505;-92
2021/07/29 12:25:02;;;;;;;;;;;;;;;40.11;15.94;99917.97;4439023;32;33369;-95
2021/07/29 12:27:44;;;;;;;;;;;;;;;40.09;16.11;99915.50;4415547;32;34450;-93
2021/07/29 12:30:30;;;;;;;;;;;;;;;40.29;15.11;99908.81;4416533;32;33774;-93
2021/07/29 12:33:06;;;;;;;;;;;;;;;40.10;15.78;99903.50;4416681;32;34755;-94
2021/07/29 12:35:39;;;;;;;;;;;;;;;40.41;15.58;99906.91;4416250;32;34374;-92
2021/07/29 12:38:08;;;;;;;;;;;;;;;40.81;15.32;99900.63;4412445;32;33413;-93
2021/07/29 12:40:36;;;;;;;;;;;;;;;41.06;15.41;99905.75;4395821;32;34205;-92
2021/07/29 12:43:24;;;;;;;;;;;;;;;40.73;15.69;99907.28;4395082;32;35931;-92
2021/07/29 12:45:53;;;;;;;;;;;;;;;40.50;15.96;99897.25;4406810;32;35556;-92
2021/07/29 12:48:25;;;;;;;;;;;;;;;40.82;15.54;99896.81;4400269;32;35608;-90
2021/07/29 12:50:53;;;;;;;;;;;;;;;40.60;15.08;99895.84;4422127;32;34449;-91
2021/07/29 12:53:21;;;;;;;;;;;;;;;40.35;15.17;99891.47;4421877;32;34396;-93
2021/07/29 12:55:49;;;;;;;;;;;;;;;40.81;15.14;99894.31;4421862;32;35795;-92
2021/07/29 12:58:18;;;;;;;;;;;;;;;40.69;14.96;99892.47;4422738;32;35008;-92
2021/07/29 13:00:46;;;;;;;;;;;;;;;40.35;15.46;99897.75;4422850;32;33423;-92
2021/07/29 13:03:18;;;;;;;;;;;;;;;41.10;14.88;99884.25;4422360;32;35016;-89
2021/07/29 13:05:46;;;;;;;;;;;;;;;41.53;14.40;99885.53;4396999;32;34618;-89
2021/07/29 13:08:14;;;;;;;;;;;;;;;41.64;14.64;99883.78;4396484;32;34750;-89
2021/07/29 13:10:42;;;;;;;;;;;;;;;41.87;14.02;99887.41;4386654;32;34391;-88
2021/07/29 13:13:11;;;;;;;;;;;;;;;41.64;14.44;99883.78;4394584;32;34927;-91
2021/07/29 13:15:39;;;;;;;;;;;;;;;41.78;14.13;99878.81;4395169;32;34606;-89
2021/07/29 13:18:07;;;;;;;;;;;;;;;42.33;14.32;99873.56;4394694;32;34528;-89
2021/07/29 13:20:34;;;;;;;;;;;;;;;41.25;14.73;99878.22;4395360;32;33493;-89
2021/07/29 13:23:02;;;;;;;;;;;;;;;42.15;13.98;99878.25;4397277;32;33297;-89
2021/07/29 13:25:29;;;;;;;;;;;;;;;42.42;13.64;99874.78;4410580;32;34502;-89
2021/07/29 13:27:57;;;;;;;;;;;;;;;42.06;14.14;99879.78;4417223;32;34692;-89
2021/07/29 13:30:25;;;;;;;;;;;;;;;42.35;14.18;99866.75;4406252;32;34236;-89
2021/07/29 13:32:52;;;;;;;;;;;;;;;42.18;14.09;99872.25;4393983;32;35856;-89
2021/07/29 13:35:20;;;;;;;;;;;;;;;42.65;13.33;99862.72;4404234;32;35507;-90
2021/07/29 13:37:48;;;;;;;;;;;;;;;42.54;13.70;99861.75;4399446;32;34642;-89
2021/07/29 13:40:16;;;;;;;;;;;;;;;42.00;13.72;99870.66;4406770;32;33761;-89